PWSweather.com
Personal Weather Stations
Station Observations
NYERIN
South Erin, Erin, NY 14838-9545

South ErinErin, NY 14838-9545

Lat: 42.150605, Lon: -76.654038

Elevation: 1663

Station Type: Davis VP Pro II

http://southerin-ny.org/wx.php

Latest ConditionsUpdated 4:32:01 AM EST Sunday, Nov 23, 2014
Currently Today's Max Today's Min Today's Average
Temperature 39.8°F4.3°C 39.8°F4.3°C 38.8°F3.8°C 39.2°F4.0°C
Dew Point 36.0°F2.2°C 36.1°F2.3°C 35.0°F1.7°C 35.7°F2.1°C
Winds 1.0 mph SSW1.6 kmh SSW 3.6 mph SW5.8 kmh SW - 1.3 mph 2.1 kmh
Wind Gusts 2.0 mph3.2 kmh 7.0 mph11.3 kmh - -
Humidity 86% 89% 85% 87%
Pressure 30.11 in1019.6 mb 30.15 in1021.0 mb 30.11 in1019.6 mb -
Hour Temp Dew Point Humidity Winds Wind Gusts Pressure Precip Precip Rate Daily Precip Total
04:32 AM 39.8°F4.3°C 36.0°F2.2°C 86% 1.0 mph SSW1.6 kmh SSW 2.0 mph3.2 kmh 30.11 in1019.6 mb 0.00 in0.0 mm 0.00 in/hr0.0 mm/hr 0.00 in0.0 mm
04:22 AM 39.6°F4.2°C 36.0°F2.2°C 87% 0.4 mph SSW0.6 kmh SSW 2.0 mph3.2 kmh 30.11 in1019.6 mb 0.00 in0.0 mm 0.00 in/hr0.0 mm/hr 0.00 in0.0 mm
04:12 AM 39.5°F4.2°C 36.0°F2.2°C 87% 0.5 mph SSW0.8 kmh SSW 1.0 mph1.6 kmh 30.11 in1019.6 mb 0.00 in0.0 mm 0.00 in/hr0.0 mm/hr 0.00 in0.0 mm
04:02 AM 39.3°F4.1°C 35.8°F2.1°C 87% 0.5 mph SSW0.8 kmh SSW 2.0 mph3.2 kmh 30.11 in1019.6 mb 0.00 in0.0 mm 0.00 in/hr0.0 mm/hr 0.00 in0.0 mm
03:52 AM 39.3°F4.1°C 36.0°F2.2°C 88% 0.6 mph SSW1.0 kmh SSW 2.0 mph3.2 kmh 30.12 in1020.0 mb 0.00 in0.0 mm 0.00 in/hr0.0 mm/hr 0.00 in0.0 mm
03:42 AM 39.3°F4.1°C 36.0°F2.2°C 88% 0.6 mph SSW1.0 kmh SSW 1.0 mph1.6 kmh 30.12 in1020.0 mb 0.00 in0.0 mm 0.00 in/hr0.0 mm/hr 0.00 in0.0 mm
03:32 AM 39.3°F4.1°C 35.8°F2.1°C 87% 0.3 mph SSW0.5 kmh SSW 2.0 mph3.2 kmh 30.13 in1020.3 mb 0.00 in0.0 mm 0.00 in/hr0.0 mm/hr 0.00 in0.0 mm
03:22 AM 39.3°F4.1°C 35.8°F2.1°C 87% 1.4 mph SSW2.3 kmh SSW 2.0 mph3.2 kmh 30.13 in1020.3 mb 0.00 in0.0 mm 0.00 in/hr0.0 mm/hr 0.00 in0.0 mm
03:12 AM 39.2°F4.0°C 35.7°F2.1°C 87% 0.1 mph SSW0.2 kmh SSW 3.0 mph4.8 kmh 30.13 in1020.3 mb 0.00 in0.0 mm 0.00 in/hr0.0 mm/hr 0.00 in0.0 mm
03:02 AM 39.2°F4.0°C 35.4°F1.9°C 86% 2.4 mph SSW3.9 kmh SSW 3.0 mph4.8 kmh 30.13 in1020.3 mb 0.00 in0.0 mm 0.00 in/hr0.0 mm/hr 0.00 in0.0 mm
02:52 AM 39.1°F3.9°C 35.0°F1.7°C 85% 2.8 mph SSW4.5 kmh SSW 4.0 mph6.4 kmh 30.13 in1020.3 mb 0.00 in0.0 mm 0.00 in/hr0.0 mm/hr 0.00 in0.0 mm
02:42 AM 39.1°F3.9°C 35.0°F1.7°C 85% 1.1 mph SSW1.8 kmh SSW 3.0 mph4.8 kmh 30.13 in1020.3 mb 0.00 in0.0 mm 0.00 in/hr0.0 mm/hr 0.00 in0.0 mm
02:32 AM 39.1°F3.9°C 35.0°F1.7°C 85% 1.5 mph SSW2.4 kmh SSW 3.0 mph4.8 kmh 30.13 in1020.3 mb 0.00 in0.0 mm 0.00 in/hr0.0 mm/hr 0.00 in0.0 mm
02:22 AM 39.1°F3.9°C 35.3°F1.8°C 86% 1.7 mph SSE2.7 kmh SSE 2.0 mph3.2 kmh 30.13 in1020.3 mb 0.00 in0.0 mm 0.00 in/hr0.0 mm/hr 0.00 in0.0 mm
02:12 AM 39.1°F3.9°C 35.3°F1.8°C 86% 1.2 mph S1.9 kmh S 4.0 mph6.4 kmh 30.13 in1020.3 mb 0.00 in0.0 mm 0.00 in/hr0.0 mm/hr 0.00 in0.0 mm
02:02 AM 39.1°F3.9°C 35.6°F2.0°C 87% 1.2 mph S1.9 kmh S 5.0 mph8.0 kmh 30.14 in1020.7 mb 0.00 in0.0 mm 0.00 in/hr0.0 mm/hr 0.00 in0.0 mm
01:52 AM 38.9°F3.8°C 35.6°F2.0°C 88% 2.8 mph SSW4.5 kmh SSW 5.0 mph8.0 kmh 30.14 in1020.7 mb 0.00 in0.0 mm 0.00 in/hr0.0 mm/hr 0.00 in0.0 mm
01:42 AM 38.9°F3.8°C 35.6°F2.0°C 88% 0.9 mph S1.4 kmh S 2.0 mph3.2 kmh 30.14 in1020.7 mb 0.00 in0.0 mm 0.00 in/hr0.0 mm/hr 0.00 in0.0 mm
01:32 AM 38.8°F3.8°C 35.6°F2.0°C 88% 1.2 mph SSW1.9 kmh SSW 4.0 mph6.4 kmh 30.14 in1020.7 mb 0.00 in0.0 mm 0.00 in/hr0.0 mm/hr 0.00 in0.0 mm
01:22 AM 38.8°F3.8°C 35.8°F2.1°C 89% 0.3 mph SSW0.5 kmh SSW 1.0 mph1.6 kmh 30.14 in1020.7 mb 0.00 in0.0 mm 0.00 in/hr0.0 mm/hr 0.00 in0.0 mm
01:12 AM 38.9°F3.8°C 35.9°F2.2°C 89% 2.7 mph SSW4.3 kmh SSW 7.0 mph11.3 kmh 30.14 in1020.7 mb 0.00 in0.0 mm 0.00 in/hr0.0 mm/hr 0.00 in0.0 mm
01:02 AM 38.9°F3.8°C 35.9°F2.2°C 89% 1.0 mph SSW1.6 kmh SSW 4.0 mph6.4 kmh 30.14 in1020.7 mb 0.00 in0.0 mm 0.00 in/hr0.0 mm/hr 0.00 in0.0 mm
12:52 AM 39.1°F3.9°C 36.1°F2.3°C 89% 1.1 mph SW1.8 kmh SW 2.0 mph3.2 kmh 30.14 in1020.7 mb 0.00 in0.0 mm 0.00 in/hr0.0 mm/hr 0.00 in0.0 mm
12:42 AM 39.1°F3.9°C 36.1°F2.3°C 89% 1.2 mph SW1.9 kmh SW 6.0 mph9.7 kmh 30.15 in1021.0 mb 0.00 in0.0 mm 0.00 in/hr0.0 mm/hr 0.00 in0.0 mm
12:32 AM 39.1°F3.9°C 36.1°F2.3°C 89% 0.8 mph SW1.3 kmh SW 3.0 mph4.8 kmh 30.14 in1020.7 mb 0.00 in0.0 mm 0.00 in/hr0.0 mm/hr 0.00 in0.0 mm
12:22 AM 39.1°F3.9°C 36.1°F2.3°C 89% 0.7 mph SW1.1 kmh SW 4.0 mph6.4 kmh 30.14 in1020.7 mb 0.00 in0.0 mm 0.00 in/hr0.0 mm/hr 0.00 in0.0 mm
12:12 AM 39.1°F3.9°C 36.1°F2.3°C 89% 3.6 mph SW5.8 kmh SW 7.0 mph11.3 kmh 30.15 in1021.0 mb 0.00 in0.0 mm 0.00 in/hr0.0 mm/hr 0.00 in0.0 mm
12:02 AM 39.1°F3.9°C 36.1°F2.3°C 89% 2.5 mph SSW4.0 kmh SSW 4.0 mph6.4 kmh 30.14 in1020.7 mb 0.00 in0.0 mm 0.00 in/hr0.0 mm/hr 0.00 in0.0 mm